sensor_id;sensor_type;location;lat;lon;timestamp;pressure;altitude;pressure_sealevel;temperature;humidity
64889;BME280;51386;53.082;8.816;2023-02-19T00:01:35;101365.59;;;12.76;59.85
64889;BME280;51386;53.082;8.816;2023-02-19T00:04:05;101369.53;;;12.80;59.94
64889;BME280;51386;53.082;8.816;2023-02-19T00:06:35;101372.47;;;12.85;59.73
64889;BME280;51386;53.082;8.816;2023-02-19T00:09:03;101373.94;;;12.87;59.57
64889;BME280;51386;53.082;8.816;2023-02-19T00:11:32;101368.47;;;12.89;59.57
64889;BME280;51386;53.082;8.816;2023-02-19T00:14:02;101367.50;;;12.90;59.54
64889;BME280;51386;53.082;8.816;2023-02-19T00:16:31;101369.94;;;12.91;59.66
64889;BME280;51386;53.082;8.816;2023-02-19T00:19:00;101372.44;;;12.93;59.51
64889;BME280;51386;53.082;8.816;2023-02-19T00:21:29;101368.78;;;12.94;59.27
64889;BME280;51386;53.082;8.816;2023-02-19T00:24:00;101369.94;;;12.91;59.19
64889;BME280;51386;53.082;8.816;2023-02-19T00:26:28;101378.72;;;12.92;59.16
64889;BME280;51386;53.082;8.816;2023-02-19T00:28:56;101379.69;;;12.91;59.41
64889;BME280;51386;53.082;8.816;2023-02-19T00:31:26;101378.06;;;12.90;59.03
64889;BME280;51386;53.082;8.816;2023-02-19T00:33:57;101378.06;;;12.90;59.23
64889;BME280;51386;53.082;8.816;2023-02-19T00:36:26;101379.69;;;12.91;59.25
64889;BME280;51386;53.082;8.816;2023-02-19T00:38:54;101370.97;;;12.90;59.32
64889;BME280;51386;53.082;8.816;2023-02-19T00:41:23;101366.66;;;12.89;59.24
64889;BME280;51386;53.082;8.816;2023-02-19T00:43:53;101372.13;;;12.88;58.55
64889;BME280;51386;53.082;8.816;2023-02-19T00:46:23;101371.66;;;12.84;58.96
64889;BME280;51386;53.082;8.816;2023-02-19T00:48:50;101377.94;;;12.83;58.98
64889;BME280;51386;53.082;8.816;2023-02-19T00:51:22;101375.44;;;12.82;58.96
64889;BME280;51386;53.082;8.816;2023-02-19T00:53:50;101374.63;;;12.81;58.62
64889;BME280;51386;53.082;8.816;2023-02-19T00:56:17;101380.91;;;12.80;58.62
64889;BME280;51386;53.082;8.816;2023-02-19T00:58:47;101377.13;;;12.75;58.55
64889;BME280;51386;53.082;8.816;2023-02-19T01:01:14;101377.31;;;12.73;58.58
64889;BME280;51386;53.082;8.816;2023-02-19T01:03:42;101372.19;;;12.72;58.98
64889;BME280;51386;53.082;8.816;2023-02-19T01:06:10;101365.63;;;12.68;58.78
64889;BME280;51386;53.082;8.816;2023-02-19T01:08:38;101376.88;;;12.62;59.07
64889;BME280;51386;53.082;8.816;2023-02-19T01:11:07;101370.13;;;12.59;59.28
64889;BME280;51386;53.082;8.816;2023-02-19T01:13:35;101362.38;;;12.58;59.12
64889;BME280;51386;53.082;8.816;2023-02-19T01:16:05;101370.97;;;12.52;58.88
64889;BME280;51386;53.082;8.816;2023-02-19T01:18:32;101380.25;;;12.48;58.89
64889;BME280;51386;53.082;8.816;2023-02-19T01:21:04;101379.75;;;12.44;59.04
64889;BME280;51386;53.082;8.816;2023-02-19T01:23:31;101383.38;;;12.43;59.20
64889;BME280;51386;53.082;8.816;2023-02-19T01:25:58;101388.50;;;12.45;58.97
64889;BME280;51386;53.082;8.816;2023-02-19T01:28:25;101384.56;;;12.41;58.60
64889;BME280;51386;53.082;8.816;2023-02-19T01:30:52;101383.25;;;12.37;58.73
64889;BME280;51386;53.082;8.816;2023-02-19T01:33:21;101386.88;;;12.36;58.39
64889;BME280;51386;53.082;8.816;2023-02-19T01:35:48;101390.69;;;12.33;58.91
64889;BME280;51386;53.082;8.816;2023-02-19T01:38:15;101388.38;;;12.30;58.76
64889;BME280;51386;53.082;8.816;2023-02-19T01:40:41;101373.53;;;12.29;58.54
64889;BME280;51386;53.082;8.816;2023-02-19T01:43:14;101374.69;;;12.27;59.33
64889;BME280;51386;53.082;8.816;2023-02-19T01:45:43;101372.03;;;12.27;59.17
64889;BME280;51386;53.082;8.816;2023-02-19T01:48:16;101379.97;;;12.27;59.73
64889;BME280;51386;53.082;8.816;2023-02-19T01:50:50;101382.47;;;12.28;58.82
64889;BME280;51386;53.082;8.816;2023-02-19T01:53:22;101382.13;;;12.31;59.24
64889;BME280;51386;53.082;8.816;2023-02-19T01:55:56;101388.88;;;12.34;58.90
64889;BME280;51386;53.082;8.816;2023-02-19T01:58:30;101389.88;;;12.33;59.09
64889;BME280;51386;53.082;8.816;2023-02-19T02:01:00;101392.31;;;12.34;58.87
64889;BME280;51386;53.082;8.816;2023-02-19T02:03:29;101391.16;;;12.37;58.86
64889;BME280;51386;53.082;8.816;2023-02-19T02:06:02;101392.81;;;12.38;59.01
64889;BME280;51386;53.082;8.816;2023-02-19T02:08:32;101386.72;;;12.37;59.02
64889;BME280;51386;53.082;8.816;2023-02-19T02:11:19;101388.53;;;12.37;58.68
64889;BME280;51386;53.082;8.816;2023-02-19T02:13:47;101394.81;;;12.36;58.47
64889;BME280;51386;53.082;8.816;2023-02-19T02:16:23;101391.03;;;12.30;58.50
64889;BME280;51386;53.082;8.816;2023-02-19T02:19:01;101399.91;;;12.29;58.87
64889;BME280;51386;53.082;8.816;2023-02-19T02:21:54;101393.16;;;12.27;58.99
64889;BME280;51386;53.082;8.816;2023-02-19T02:25:04;101390.22;;;12.21;58.41
64889;BME280;51386;53.082;8.816;2023-02-19T02:27:48;101396.50;;;12.20;58.47
64889;BME280;51386;53.082;8.816;2023-02-19T02:30:36;101404.72;;;12.17;58.85
64889;BME280;51386;53.082;8.816;2023-02-19T02:33:18;101406.22;;;12.20;58.56
64889;BME280;51386;53.082;8.816;2023-02-19T02:35:52;101401.78;;;12.20;58.39
64889;BME280;51386;53.082;8.816;2023-02-19T02:38:25;101402.59;;;12.21;59.07
64889;BME280;51386;53.082;8.816;2023-02-19T02:40:54;101403.06;;;12.24;59.26
64889;BME280;51386;53.082;8.816;2023-02-19T02:43:23;101404.72;;;12.26;58.52
64889;BME280;51386;53.082;8.816;2023-02-19T02:45:51;101396.81;;;12.26;58.32
64889;BME280;51386;53.082;8.816;2023-02-19T02:48:27;101389.72;;;12.26;58.58
64889;BME280;51386;53.082;8.816;2023-02-19T02:51:01;101393.84;;;12.29;58.29
64889;BME280;51386;53.082;8.816;2023-02-19T02:53:36;101393.84;;;12.29;58.56
64889;BME280;51386;53.082;8.816;2023-02-19T02:56:24;101386.91;;;12.28;58.10
64889;BME280;51386;53.082;8.816;2023-02-19T02:58:55;101395.34;;;12.23;57.75
64889;BME280;51386;53.082;8.816;2023-02-19T03:01:29;101403.09;;;12.16;58.06
64889;BME280;51386;53.082;8.816;2023-02-19T03:04:23;101398.50;;;12.02;56.97
64889;BME280;51386;53.082;8.816;2023-02-19T03:06:54;101397.22;;;11.82;56.87
64889;BME280;51386;53.082;8.816;2023-02-19T03:09:30;101394.88;;;11.63;56.71
64889;BME280;51386;53.082;8.816;2023-02-19T03:12:10;101411.34;;;11.49;57.18
64889;BME280;51386;53.082;8.816;2023-02-19T03:15:05;101416.63;;;11.41;57.45
64889;BME280;51386;53.082;8.816;2023-02-19T03:18:00;101428.13;;;11.32;57.97
64889;BME280;51386;53.082;8.816;2023-02-19T03:20:51;101439.69;;;11.31;57.73
64889;BME280;51386;53.082;8.816;2023-02-19T03:23:21;101438.34;;;11.35;57.94
64889;BME280;51386;53.082;8.816;2023-02-19T03:26:09;101437.38;;;11.36;58.37
64889;BME280;51386;53.082;8.816;2023-02-19T03:28:39;101447.56;;;11.39;58.00
64889;BME280;51386;53.082;8.816;2023-02-19T03:31:30;101448.59;;;11.38;58.13
64889;BME280;51386;53.082;8.816;2023-02-19T03:34:02;101443.63;;;11.35;57.94
64889;BME280;51386;53.082;8.816;2023-02-19T03:36:38;101445.59;;;11.33;57.88
64889;BME280;51386;53.082;8.816;2023-02-19T03:39:12;101460.41;;;11.34;58.54
64889;BME280;51386;53.082;8.816;2023-02-19T03:41:49;101464.72;;;11.35;57.79
64889;BME280;51386;53.082;8.816;2023-02-19T03:44:27;101472.31;;;11.38;58.62
64889;BME280;51386;53.082;8.816;2023-02-19T03:47:04;101471.63;;;11.44;58.23
64889;BME280;51386;53.082;8.816;2023-02-19T03:49:43;101478.25;;;11.48;57.64
64889;BME280;51386;53.082;8.816;2023-02-19T03:52:19;101489.13;;;11.53;58.09
64889;BME280;51386;53.082;8.816;2023-02-19T03:54:57;101485.34;;;11.55;58.03
64889;BME280;51386;53.082;8.816;2023-02-19T03:57:36;101492.75;;;11.60;57.95
64889;BME280;51386;53.082;8.816;2023-02-19T04:00:10;101503.81;;;11.64;57.65
64889;BME280;51386;53.082;8.816;2023-02-19T04:02:46;101504.66;;;11.64;57.68
64889;BME280;51386;53.082;8.816;2023-02-19T04:05:20;101507.09;;;11.66;57.49
64889;BME280;51386;53.082;8.816;2023-02-19T04:07:52;101512.22;;;11.67;57.62
64889;BME280;51386;53.082;8.816;2023-02-19T04:10:20;101521.81;;;11.68;57.84
64889;BME280;51386;53.082;8.816;2023-02-19T04:12:54;101529.56;;;11.70;57.48
64889;BME280;51386;53.082;8.816;2023-02-19T04:15:29;101528.75;;;11.69;57.64
64889;BME280;51386;53.082;8.816;2023-02-19T04:18:01;101534.31;;;11.66;57.12
64889;BME280;51386;53.082;8.816;2023-02-19T04:20:35;101547.16;;;11.61;56.89
64889;BME280;51386;53.082;8.816;2023-02-19T04:23:05;101549.13;;;11.59;57.44
64889;BME280;51386;53.082;8.816;2023-02-19T04:25:34;101549.13;;;11.59;57.61
64889;BME280;51386;53.082;8.816;2023-02-19T04:28:03;101554.09;;;11.62;57.65
64889;BME280;51386;53.082;8.816;2023-02-19T04:30:31;101566.91;;;11.65;57.91
64889;BME280;51386;53.082;8.816;2023-02-19T04:32:58;101565.94;;;11.66;57.08
64889;BME280;51386;53.082;8.816;2023-02-19T04:35:25;101563.16;;;11.68;57.86
64889;BME280;51386;53.082;8.816;2023-02-19T04:37:53;101572.56;;;11.70;57.18
64889;BME280;51386;53.082;8.816;2023-02-19T04:40:20;101567.97;;;11.72;57.83
64889;BME280;51386;53.082;8.816;2023-02-19T04:42:47;101583.47;;;11.75;57.41
64889;BME280;51386;53.082;8.816;2023-02-19T04:45:14;101578.84;;;11.77;57.62
64889;BME280;51386;53.082;8.816;2023-02-19T04:47:41;101584.13;;;11.77;57.30
64889;BME280;51386;53.082;8.816;2023-02-19T04:50:08;101589.41;;;11.77;57.60
64889;BME280;51386;53.082;8.816;2023-02-19T04:52:35;101593.53;;;11.80;57.51
64889;BME280;51386;53.082;8.816;2023-02-19T04:55:04;101603.25;;;11.79;57.50
64889;BME280;51386;53.082;8.816;2023-02-19T04:57:31;101602.75;;;11.76;56.77
64889;BME280;51386;53.082;8.816;2023-02-19T04:59:58;101599.78;;;11.71;56.66
64889;BME280;51386;53.082;8.816;2023-02-19T05:02:25;101603.84;;;11.65;57.06
64889;BME280;51386;53.082;8.816;2023-02-19T05:04:52;101607.78;;;11.61;56.99
64889;BME280;51386;53.082;8.816;2023-02-19T05:07:19;101614.22;;;11.58;56.95
64889;BME280;51386;53.082;8.816;2023-02-19T05:09:46;101619.97;;;11.54;57.06
64889;BME280;51386;53.082;8.816;2023-02-19T05:12:14;101623.06;;;11.49;56.97
64889;BME280;51386;53.082;8.816;2023-02-19T05:14:41;101625.19;;;11.46;57.32
64889;BME280;51386;53.082;8.816;2023-02-19T05:17:08;101625.19;;;11.46;57.41
64889;BME280;51386;53.082;8.816;2023-02-19T05:19:35;101638.72;;;11.51;58.30
64889;BME280;51386;53.082;8.816;2023-02-19T05:22:02;101636.13;;;11.59;57.92
64889;BME280;51386;53.082;8.816;2023-02-19T05:24:29;101634.50;;;11.66;57.97
64889;BME280;51386;53.082;8.816;2023-02-19T05:26:57;101637.84;;;11.68;57.66
64889;BME280;51386;53.082;8.816;2023-02-19T05:29:25;101650.53;;;11.73;58.05
64889;BME280;51386;53.082;8.816;2023-02-19T05:31:52;101657.47;;;11.74;57.09
64889;BME280;51386;53.082;8.816;2023-02-19T05:34:19;101667.50;;;11.70;57.39
64889;BME280;51386;53.082;8.816;2023-02-19T05:36:46;101672.25;;;11.67;57.11
64889;BME280;51386;53.082;8.816;2023-02-19T05:39:13;101678.00;;;11.62;57.28
64889;BME280;51386;53.082;8.816;2023-02-19T05:41:40;101681.13;;;11.57;57.06
64889;BME280;51386;53.082;8.816;2023-02-19T05:44:09;101685.22;;;11.52;57.10
64889;BME280;51386;53.082;8.816;2023-02-19T05:46:37;101693.59;;;11.47;56.77
64889;BME280;51386;53.082;8.816;2023-02-19T05:49:04;101700.00;;;11.45;57.03
64889;BME280;51386;53.082;8.816;2023-02-19T05:51:31;101709.22;;;11.41;57.19
64889;BME280;51386;53.082;8.816;2023-02-19T05:53:58;101714.78;;;11.38;57.23
64889;BME280;51386;53.082;8.816;2023-02-19T05:56:34;101719.84;;;11.31;57.14
64889;BME280;51386;53.082;8.816;2023-02-19T05:59:05;101724.59;;;11.28;57.19
64889;BME280;51386;53.082;8.816;2023-02-19T06:01:34;101728.19;;;11.27;57.23
64889;BME280;51386;53.082;8.816;2023-02-19T06:04:02;101727.91;;;11.30;58.41
64889;BME280;51386;53.082;8.816;2023-02-19T06:06:30;101719.69;;;11.33;57.50
64889;BME280;51386;53.082;8.816;2023-02-19T06:08:57;101733.38;;;11.36;58.42
64889;BME280;51386;53.082;8.816;2023-02-19T06:11:24;101730.28;;;11.41;57.85
64889;BME280;51386;53.082;8.816;2023-02-19T06:13:51;101737.19;;;11.42;57.91
64889;BME280;51386;53.082;8.816;2023-02-19T06:16:18;101735.88;;;11.38;57.14
64889;BME280;51386;53.082;8.816;2023-02-19T06:18:45;101740.09;;;11.31;57.59
64889;BME280;51386;53.082;8.816;2023-02-19T06:21:15;101756.00;;;11.21;57.59
64889;BME280;51386;53.082;8.816;2023-02-19T06:23:43;101754.13;;;11.14;57.46
64889;BME280;51386;53.082;8.816;2023-02-19T06:26:13;101770.19;;;11.03;57.70
64889;BME280;51386;53.082;8.816;2023-02-19T06:28:41;101776.22;;;10.95;57.33
64889;BME280;51386;53.082;8.816;2023-02-19T06:31:09;101773.38;;;10.88;57.44
64889;BME280;51386;53.082;8.816;2023-02-19T06:33:37;101779.22;;;10.82;58.08
64889;BME280;51386;53.082;8.816;2023-02-19T06:36:10;101787.41;;;10.79;57.68
64889;BME280;51386;53.082;8.816;2023-02-19T06:38:39;101790.50;;;10.75;57.93
64889;BME280;51386;53.082;8.816;2023-02-19T06:41:07;101791.63;;;10.72;57.83
64889;BME280;51386;53.082;8.816;2023-02-19T06:43:35;101806.75;;;10.70;58.41
64889;BME280;51386;53.082;8.816;2023-02-19T06:46:05;101800.81;;;10.68;58.36
64889;BME280;51386;53.082;8.816;2023-02-19T06:48:33;101813.28;;;10.66;58.20
64889;BME280;51386;53.082;8.816;2023-02-19T06:51:00;101825.47;;;10.67;59.03
64889;BME280;51386;53.082;8.816;2023-02-19T06:53:28;101828.09;;;10.67;58.47
64889;BME280;51386;53.082;8.816;2023-02-19T06:55:57;101823.81;;;10.66;58.79
64889;BME280;51386;53.082;8.816;2023-02-19T06:58:25;101838.63;;;10.67;58.76
64889;BME280;51386;53.082;8.816;2023-02-19T07:00:52;101832.09;;;10.71;59.51
64889;BME280;51386;53.082;8.816;2023-02-19T07:03:20;101844.53;;;10.79;59.23
64889;BME280;51386;53.082;8.816;2023-02-19T07:05:47;101849.47;;;10.82;58.88
64889;BME280;51386;53.082;8.816;2023-02-19T07:08:14;101861.84;;;10.81;58.32
64889;BME280;51386;53.082;8.816;2023-02-19T07:10:43;101864.47;;;10.81;58.67
64889;BME280;51386;53.082;8.816;2023-02-19T07:13:11;101870.56;;;10.82;58.77
64889;BME280;51386;53.082;8.816;2023-02-19T07:15:38;101873.19;;;10.82;58.79
64889;BME280;51386;53.082;8.816;2023-02-19T07:18:05;101874.84;;;10.83;58.82
64889;BME280;51386;53.082;8.816;2023-02-19T07:20:36;101892.16;;;10.85;58.16
64889;BME280;51386;53.082;8.816;2023-02-19T07:23:03;101902.69;;;10.85;58.13
64889;BME280;51386;53.082;8.816;2023-02-19T07:25:30;101906.31;;;10.84;58.40
64889;BME280;51386;53.082;8.816;2023-02-19T07:27:57;101901.03;;;10.84;58.21
64889;BME280;51386;53.082;8.816;2023-02-19T07:30:25;101917.38;;;10.88;59.02
64889;BME280;51386;53.082;8.816;2023-02-19T07:32:52;101922.88;;;10.95;59.03
64889;BME280;51386;53.082;8.816;2023-02-19T07:35:19;101930.28;;;11.09;59.19
64889;BME280;51386;53.082;8.816;2023-02-19T07:37:46;101931.00;;;11.28;59.04
64889;BME280;51386;53.082;8.816;2023-02-19T07:40:13;101939.22;;;11.43;58.53
64889;BME280;51386;53.082;8.816;2023-02-19T07:42:40;101942.06;;;11.49;58.08
64889;BME280;51386;53.082;8.816;2023-02-19T07:45:07;101949.53;;;11.54;58.32
64889;BME280;51386;53.082;8.816;2023-02-19T07:47:36;101950.28;;;11.64;57.81
64889;BME280;51386;53.082;8.816;2023-02-19T07:50:03;101955.03;;;11.78;57.75
64889;BME280;51386;53.082;8.816;2023-02-19T07:52:32;101957.13;;;11.92;57.22
64889;BME280;51386;53.082;8.816;2023-02-19T07:54:59;101965.47;;;12.05;57.48
64889;BME280;51386;53.082;8.816;2023-02-19T07:57:27;101966.88;;;12.17;57.04
64889;BME280;51386;53.082;8.816;2023-02-19T07:59:54;101970.91;;;12.30;56.75
64889;BME280;51386;53.082;8.816;2023-02-19T08:02:21;101974.28;;;12.40;56.15
64889;BME280;51386;53.082;8.816;2023-02-19T08:05:08;101963.78;;;12.48;55.68
64889;BME280;51386;53.082;8.816;2023-02-19T08:07:36;101957.88;;;12.54;55.76
64889;BME280;51386;53.082;8.816;2023-02-19T08:10:04;101943.69;;;12.55;55.35
64889;BME280;51386;53.082;8.816;2023-02-19T08:12:57;101952.28;;;12.57;55.63
64889;BME280;51386;53.082;8.816;2023-02-19T08:15:44;101950.59;;;12.56;55.45
64889;BME280;51386;53.082;8.816;2023-02-19T08:18:12;101951.31;;;12.66;55.51
64889;BME280;51386;53.082;8.816;2023-02-19T08:20:42;101942.50;;;12.91;55.79
64889;BME280;51386;53.082;8.816;2023-02-19T08:23:10;101948.28;;;13.28;55.32
64889;BME280;51386;53.082;8.816;2023-02-19T08:25:39;101957.41;;;13.82;54.77
64889;BME280;51386;53.082;8.816;2023-02-19T08:28:09;101965.69;;;14.36;53.60
64889;BME280;51386;53.082;8.816;2023-02-19T08:30:38;101964.78;;;14.59;52.34
64889;BME280;51386;53.082;8.816;2023-02-19T08:33:07;101971.53;;;14.78;51.55
64889;BME280;51386;53.082;8.816;2023-02-19T08:35:34;101975.25;;;15.00;50.96
64889;BME280;51386;53.082;8.816;2023-02-19T08:38:06;101976.97;;;15.15;50.38
64889;BME280;51386;53.082;8.816;2023-02-19T08:40:34;101992.69;;;15.25;50.17
64889;BME280;51386;53.082;8.816;2023-02-19T08:43:02;101989.69;;;15.28;50.17
64889;BME280;51386;53.082;8.816;2023-02-19T08:45:30;102001.63;;;15.24;49.28
64889;BME280;51386;53.082;8.816;2023-02-19T08:47:57;102000.63;;;15.25;49.30
64889;BME280;51386;53.082;8.816;2023-02-19T08:50:24;101999.59;;;15.34;49.71
64889;BME280;51386;53.082;8.816;2023-02-19T08:52:52;101994.88;;;15.44;49.31
64889;BME280;51386;53.082;8.816;2023-02-19T08:55:20;101998.47;;;15.59;48.70
64889;BME280;51386;53.082;8.816;2023-02-19T08:57:47;102005.31;;;15.76;48.28
64889;BME280;51386;53.082;8.816;2023-02-19T09:00:17;102010.13;;;15.95;48.05
64889;BME280;51386;53.082;8.816;2023-02-19T09:02:44;102005.59;;;16.04;47.32
64889;BME280;51386;53.082;8.816;2023-02-19T09:05:11;102021.44;;;15.97;47.06
64889;BME280;51386;53.082;8.816;2023-02-19T09:07:38;102025.38;;;16.01;47.71
64889;BME280;51386;53.082;8.816;2023-02-19T09:10:07;102037.88;;;16.15;46.99
64889;BME280;51386;53.082;8.816;2023-02-19T09:12:36;102037.72;;;16.32;46.78
64889;BME280;51386;53.082;8.816;2023-02-19T09:15:05;102032.16;;;16.64;46.50
64889;BME280;51386;53.082;8.816;2023-02-19T09:17:32;102040.38;;;16.98;45.74
64889;BME280;51386;53.082;8.816;2023-02-19T09:19:59;102037.25;;;17.24;45.47
64889;BME280;51386;53.082;8.816;2023-02-19T09:22:26;102046.03;;;17.53;45.08
64889;BME280;51386;53.082;8.816;2023-02-19T09:24:53;102051.69;;;17.50;44.02
64889;BME280;51386;53.082;8.816;2023-02-19T09:27:20;102069.28;;;17.30;44.44
64889;BME280;51386;53.082;8.816;2023-02-19T09:29:48;102070.69;;;16.97;44.01
64889;BME280;51386;53.082;8.816;2023-02-19T09:32:15;102086.13;;;16.64;44.16
64889;BME280;51386;53.082;8.816;2023-02-19T09:34:45;102086.66;;;16.60;44.75
64889;BME280;51386;53.082;8.816;2023-02-19T09:37:12;102080.13;;;16.85;44.30
64889;BME280;51386;53.082;8.816;2023-02-19T09:39:39;102086.44;;;16.84;44.40
64889;BME280;51386;53.082;8.816;2023-02-19T09:42:14;102106.31;;;16.59;43.79
64889;BME280;51386;53.082;8.816;2023-02-19T09:44:48;102115.38;;;16.64;44.59
64889;BME280;51386;53.082;8.816;2023-02-19T09:47:18;102125.34;;;17.43;44.50
64889;BME280;51386;53.082;8.816;2023-02-19T09:49:47;102131.34;;;18.59;42.94
64889;BME280;51386;53.082;8.816;2023-02-19T09:52:27;102130.72;;;20.07;41.04
64889;BME280;51386;53.082;8.816;2023-02-19T09:55:00;102134.50;;;20.91;38.21
64889;BME280;51386;53.082;8.816;2023-02-19T09:57:32;102145.59;;;20.75;37.81
64889;BME280;51386;53.082;8.816;2023-02-19T10:00:11;102152.22;;;20.79;37.14
64889;BME280;51386;53.082;8.816;2023-02-19T10:02:54;102146.78;;;21.38;36.57
64889;BME280;51386;53.082;8.816;2023-02-19T10:05:26;102151.13;;;21.84;34.73
64889;BME280;51386;53.082;8.816;2023-02-19T10:07:55;102148.09;;;22.11;34.60
64889;BME280;51386;53.082;8.816;2023-02-19T10:10:28;102147.94;;;22.38;33.94
64889;BME280;51386;53.082;8.816;2023-02-19T10:13:10;102161.19;;;21.95;33.08
64889;BME280;51386;53.082;8.816;2023-02-19T10:15:46;102163.13;;;21.17;32.93
64889;BME280;51386;53.082;8.816;2023-02-19T10:18:20;102168.84;;;20.36;34.29
64889;BME280;51386;53.082;8.816;2023-02-19T10:20:50;102167.06;;;19.82;35.31
64889;BME280;51386;53.082;8.816;2023-02-19T10:23:18;102165.09;;;20.10;35.79
64889;BME280;51386;53.082;8.816;2023-02-19T10:25:48;102163.50;;;20.94;34.18
64889;BME280;51386;53.082;8.816;2023-02-19T10:28:22;102157.41;;;21.65;32.91
64889;BME280;51386;53.082;8.816;2023-02-19T10:30:56;102160.91;;;22.09;32.90
64889;BME280;51386;53.082;8.816;2023-02-19T10:33:24;102150.59;;;22.13;32.65
64889;BME280;51386;53.082;8.816;2023-02-19T10:35:55;102141.38;;;22.34;32.35
64889;BME280;51386;53.082;8.816;2023-02-19T10:38:26;102136.09;;;22.76;32.43
64889;BME280;51386;53.082;8.816;2023-02-19T10:41:01;102136.59;;;23.28;31.76
64889;BME280;51386;53.082;8.816;2023-02-19T10:43:35;102148.72;;;23.37;30.01
64889;BME280;51386;53.082;8.816;2023-02-19T10:46:14;102160.59;;;23.05;30.02
64889;BME280;51386;53.082;8.816;2023-02-19T10:48:49;102172.69;;;22.96;30.27
64889;BME280;51386;53.082;8.816;2023-02-19T10:51:18;102175.66;;;22.87;30.12
64889;BME280;51386;53.082;8.816;2023-02-19T10:53:50;102188.06;;;22.26;30.16
64889;BME280;51386;53.082;8.816;2023-02-19T10:56:28;102203.53;;;21.73;31.03
64889;BME280;51386;53.082;8.816;2023-02-19T10:59:17;102209.41;;;21.50;31.21
64889;BME280;51386;53.082;8.816;2023-02-19T11:01:55;102216.44;;;21.38;31.43
64889;BME280;51386;53.082;8.816;2023-02-19T11:04:25;102213.72;;;21.51;31.64
64889;BME280;51386;53.082;8.816;2023-02-19T11:06:53;102213.91;;;21.56;31.42
64889;BME280;51386;53.082;8.816;2023-02-19T11:09:32;102218.13;;;21.13;31.15
64889;BME280;51386;53.082;8.816;2023-02-19T11:12:01;102214.19;;;20.76;31.78
64889;BME280;51386;53.082;8.816;2023-02-19T11:14:32;102220.94;;;20.53;32.36
64889;BME280;51386;53.082;8.816;2023-02-19T11:17:03;102231.44;;;20.48;32.63
64889;BME280;51386;53.082;8.816;2023-02-19T11:19:36;102219.31;;;20.58;32.79
64889;BME280;51386;53.082;8.816;2023-02-19T11:22:41;102218.69;;;20.56;32.18
64889;BME280;51386;53.082;8.816;2023-02-19T11:25:20;102222.19;;;20.50;31.55
64889;BME280;51386;53.082;8.816;2023-02-19T11:27:58;102211.03;;;20.47;32.12
64889;BME280;51386;53.082;8.816;2023-02-19T11:30:38;102211.31;;;20.58;32.27
64889;BME280;51386;53.082;8.816;2023-02-19T11:33:26;102207.19;;;20.56;31.50
64889;BME280;51386;53.082;8.816;2023-02-19T11:36:22;102203.00;;;20.34;31.73
64889;BME280;51386;53.082;8.816;2023-02-19T11:38:50;102193.66;;;20.16;31.91
64889;BME280;51386;53.082;8.816;2023-02-19T11:41:39;102205.56;;;20.01;32.03
64889;BME280;51386;53.082;8.816;2023-02-19T11:44:27;102204.91;;;19.92;32.70
64889;BME280;51386;53.082;8.816;2023-02-19T11:47:26;102194.03;;;20.00;32.26
64889;BME280;51386;53.082;8.816;2023-02-19T11:50:07;102201.69;;;20.16;31.83
64889;BME280;51386;53.082;8.816;2023-02-19T11:52:47;102190.47;;;20.28;30.89
64889;BME280;51386;53.082;8.816;2023-02-19T11:55:33;102193.38;;;20.46;31.52
64889;BME280;51386;53.082;8.816;2023-02-19T11:58:25;102195.03;;;20.73;31.06
64889;BME280;51386;53.082;8.816;2023-02-19T12:01:07;102192.97;;;20.88;30.71
64889;BME280;51386;53.082;8.816;2023-02-19T12:04:03;102194.00;;;20.61;30.78
64889;BME280;51386;53.082;8.816;2023-02-19T12:06:54;102197.03;;;20.32;30.35
64889;BME280;51386;53.082;8.816;2023-02-19T12:09:42;102203.25;;;19.85;31.22
64889;BME280;51386;53.082;8.816;2023-02-19T12:12:31;102202.81;;;19.47;31.69
64889;BME280;51386;53.082;8.816;2023-02-19T12:15:37;102211.31;;;19.29;32.10
64889;BME280;51386;53.082;8.816;2023-02-19T12:19:02;102212.91;;;19.24;32.15
64889;BME280;51386;53.082;8.816;2023-02-19T12:21:59;102223.59;;;19.24;32.06
64889;BME280;51386;53.082;8.816;2023-02-19T12:24:55;102224.19;;;19.19;31.92
64889;BME280;51386;53.082;8.816;2023-02-19T12:27:42;102218.75;;;19.34;32.32
64889;BME280;51386;53.082;8.816;2023-02-19T12:30:28;102214.41;;;19.33;31.66
64889;BME280;51386;53.082;8.816;2023-02-19T12:33:24;102216.28;;;19.32;31.96
64889;BME280;51386;53.082;8.816;2023-02-19T12:36:07;102217.09;;;19.33;31.36
64889;BME280;51386;53.082;8.816;2023-02-19T12:38:43;102213.97;;;19.23;31.03
64889;BME280;51386;53.082;8.816;2023-02-19T12:41:29;102208.22;;;18.98;31.59
64889;BME280;51386;53.082;8.816;2023-02-19T12:44:09;102214.41;;;18.77;31.51
64889;BME280;51386;53.082;8.816;2023-02-19T12:46:42;102212.22;;;18.87;32.18
64889;BME280;51386;53.082;8.816;2023-02-19T12:49:18;102213.78;;;19.31;31.87
64889;BME280;51386;53.082;8.816;2023-02-19T12:51:56;102213.22;;;19.63;31.65
64889;BME280;51386;53.082;8.816;2023-02-19T12:54:32;102214.94;;;19.84;31.28
64889;BME280;51386;53.082;8.816;2023-02-19T12:57:04;102216.16;;;19.81;31.19
64889;BME280;51386;53.082;8.816;2023-02-19T12:59:40;102212.53;;;19.95;31.47
64889;BME280;51386;53.082;8.816;2023-02-19T13:02:16;102220.94;;;20.53;30.35
64889;BME280;51386;53.082;8.816;2023-02-19T13:04:54;102235.84;;;21.08;29.84
64889;BME280;51386;53.082;8.816;2023-02-19T13:07:31;102225.91;;;21.02;29.60
64889;BME280;51386;53.082;8.816;2023-02-19T13:10:20;102215.44;;;20.93;29.82
64889;BME280;51386;53.082;8.816;2023-02-19T13:12:52;102208.22;;;21.01;29.47
64889;BME280;51386;53.082;8.816;2023-02-19T13:15:29;102199.56;;;20.99;29.51
64889;BME280;51386;53.082;8.816;2023-02-19T13:17:59;102199.97;;;21.02;29.10
64889;BME280;51386;53.082;8.816;2023-02-19T13:20:33;102201.22;;;20.93;29.24